Time;durP1;ratioP1;P1;durP2;ratioP2;P2;SDS_P1;SDS_P2;PMS_P1;PMS_P2;Temp;Humidity;BMP_temperature;BMP_pressure;BME280_temperature;BME280_humidity;BME280_pressure;Samples;Min_cycle;Max_cycle;Signal;HPM_P1;HPM_P2
2023/07/18 00:01:34;;;;;;;4.28;2.90;;;;;;;29.01;44.81;99749.72;4436356;32;32566;-68
2023/07/18 00:04:02;;;;;;;4.95;2.60;;;;;;;29.02;44.79;99750.56;4422393;32;36404;-69
2023/07/18 00:06:30;;;;;;;6.95;3.15;;;;;;;28.99;44.57;99746.34;4433977;32;34466;-69
2023/07/18 00:08:58;;;;;;;4.18;2.17;;;;;;;28.94;44.65;99743.44;4429329;32;35127;-70
2023/07/18 00:11:25;;;;;;;4.78;2.70;;;;;;;28.97;44.59;99750.41;4434255;32;35258;-70
2023/07/18 00:13:53;;;;;;;6.75;3.22;;;;;;;29.00;44.57;99756.31;4434373;32;33667;-70
2023/07/18 00:16:20;;;;;;;5.30;3.08;;;;;;;28.92;44.67;99756.59;4436624;32;33381;-70
2023/07/18 00:18:50;;;;;;;5.80;2.67;;;;;;;28.94;44.64;99761.91;4436779;32;33546;-69
2023/07/18 00:21:17;;;;;;;8.35;3.25;;;;;;;28.93;44.64;99755.56;4428190;32;34983;-69
2023/07/18 00:23:46;;;;;;;4.45;3.10;;;;;;;28.95;44.77;99752.56;4431867;32;33735;-70
2023/07/18 00:26:13;;;;;;;5.93;3.35;;;;;;;28.82;44.87;99756.34;4437184;32;31762;-69
2023/07/18 00:28:41;;;;;;;4.82;3.03;;;;;;;28.87;44.98;99750.16;4433402;32;34998;-69
2023/07/18 00:31:09;;;;;;;5.03;3.00;;;;;;;28.88;45.22;99747.16;4435235;32;34140;-68
2023/07/18 00:33:37;;;;;;;3.95;2.20;;;;;;;28.83;45.01;99754.41;4432829;32;33560;-68
2023/07/18 00:36:05;;;;;;;4.75;2.30;;;;;;;28.82;45.02;99742.56;4434941;32;33209;-68
2023/07/18 00:38:34;;;;;;;5.15;2.85;;;;;;;28.76;45.33;99743.50;4430207;32;34069;-68
2023/07/18 00:41:04;;;;;;;4.87;3.03;;;;;;;28.78;45.27;99742.19;4436677;32;33860;-68
2023/07/18 00:43:32;;;;;;;5.10;2.90;;;;;;;28.79;45.25;99735.59;4432649;32;33835;-68
2023/07/18 00:46:03;;;;;;;4.55;2.67;;;;;;;28.68;45.34;99739.19;4432982;32;33320;-68
2023/07/18 00:48:34;;;;;;;4.87;2.80;;;;;;;28.59;45.24;99742.47;4428687;32;33527;-68
2023/07/18 00:51:07;;;;;;;6.97;2.80;;;;;;;28.61;45.00;99741.19;4435353;32;35093;-68
2023/07/18 00:53:36;;;;;;;5.22;2.42;;;;;;;28.58;45.09;99736.13;4434632;32;33716;-69
2023/07/18 00:56:04;;;;;;;9.43;2.87;;;;;;;28.56;45.19;99744.63;4435802;32;33671;-69
2023/07/18 00:58:32;;;;;;;4.35;2.55;;;;;;;28.57;45.19;99739.94;4435613;32;33941;-68
2023/07/18 01:01:00;;;;;;;4.15;2.05;;;;;;;28.58;45.30;99738.91;4428311;32;35946;-68
2023/07/18 01:03:29;;;;;;;4.22;2.35;;;;;;;28.66;44.97;99744.06;4436887;32;33829;-68
2023/07/18 01:05:57;;;;;;;4.97;2.75;;;;;;;28.64;45.21;99750.91;4433482;32;33097;-67
2023/07/18 01:08:25;;;;;;;4.95;2.53;;;;;;;28.59;44.98;99748.00;4435167;32;33782;-68
2023/07/18 01:10:52;;;;;;;7.45;3.05;;;;;;;28.57;44.85;99745.44;4426710;32;35261;-68
2023/07/18 01:13:20;;;;;;;4.40;2.28;;;;;;;28.52;45.00;99740.66;4428224;32;34461;-68
2023/07/18 01:15:49;;;;;;;9.25;2.28;;;;;;;28.53;45.06;99736.81;4436588;32;33949;-69
2023/07/18 01:18:17;;;;;;;4.35;2.12;;;;;;;28.54;45.22;99737.69;4436122;32;34944;-69
2023/07/18 01:20:46;;;;;;;5.32;2.62;;;;;;;28.55;44.95;99737.44;4432542;32;34762;-69
2023/07/18 01:23:13;;;;;;;5.43;2.70;;;;;;;28.58;44.86;99729.81;4431906;32;33517;-67
2023/07/18 01:25:42;;;;;;;4.70;2.72;;;;;;;28.58;44.94;99730.62;4436415;32;33823;-67
2023/07/18 01:28:10;;;;;;;6.40;3.00;;;;;;;28.49;45.39;99721.84;4433613;32;35423;-67
2023/07/18 01:30:38;;;;;;;6.50;3.15;;;;;;;28.51;45.35;99718.87;4434580;32;35219;-67
2023/07/18 01:33:06;;;;;;;7.93;2.83;;;;;;;28.31;45.88;99717.19;4432516;32;33797;-67
2023/07/18 01:35:34;;;;;;;3.65;2.22;;;;;;;28.42;45.73;99721.09;4433412;32;33278;-67
2023/07/18 01:38:02;;;;;;;5.55;2.22;;;;;;;28.45;45.66;99726.16;4427722;32;34143;-67
2023/07/18 01:40:29;;;;;;;3.65;2.55;;;;;;;28.38;46.05;99719.87;4435338;32;34733;-67
2023/07/18 01:42:57;;;;;;;5.68;2.95;;;;;;;28.46;45.79;99726.97;4432065;32;34135;-69
2023/07/18 01:45:29;;;;;;;4.95;3.42;;;;;;;28.39;45.93;99728.97;4434166;32;34206;-68
2023/07/18 01:47:59;;;;;;;6.15;3.60;;;;;;;28.34;46.17;99729.63;4431457;32;34965;-68
2023/07/18 01:50:27;;;;;;;5.72;3.72;;;;;;;28.36;45.99;99730.25;4433047;32;33952;-68
2023/07/18 01:52:55;;;;;;;6.35;2.97;;;;;;;28.28;46.04;99725.03;4434842;32;33721;-69
2023/07/18 01:55:23;;;;;;;4.95;2.78;;;;;;;28.36;45.91;99733.00;4431589;32;34123;-69
2023/07/18 01:57:51;;;;;;;4.70;2.95;;;;;;;28.32;46.24;99729.88;4428903;32;34711;-69
2023/07/18 02:00:20;;;;;;;5.12;2.90;;;;;;;28.33;46.14;99722.47;4433899;32;34057;-69
2023/07/18 02:02:52;;;;;;;6.35;2.92;;;;;;;28.29;46.38;99727.59;4436744;32;34939;-69
2023/07/18 02:05:23;;;;;;;6.28;3.72;;;;;;;28.36;46.23;99744.00;4434659;32;34005;-67
2023/07/18 02:07:51;;;;;;;5.97;3.58;;;;;;;28.29;46.36;99746.84;4436590;32;33807;-67
2023/07/18 02:10:20;;;;;;;4.97;3.12;;;;;;;28.20;46.59;99747.38;4436489;32;33905;-67
2023/07/18 02:12:50;;;;;;;6.18;3.28;;;;;;;28.17;46.65;99748.69;4438996;32;34311;-70
2023/07/18 02:15:18;;;;;;;4.07;2.50;;;;;;;28.11;47.05;99749.59;4434348;32;34275;-69
2023/07/18 02:17:46;;;;;;;4.95;2.97;;;;;;;28.01;47.34;99752.88;4433575;32;34007;-69
2023/07/18 02:20:16;;;;;;;3.72;2.40;;;;;;;28.14;47.13;99756.56;4435148;32;35434;-68
2023/07/18 02:22:44;;;;;;;3.72;2.40;;;;;;;28.21;47.06;99762.81;4432629;32;33728;-67
2023/07/18 02:25:16;;;;;;;6.35;3.33;;;;;;;28.24;46.82;99760.44;4429744;32;33473;-68
2023/07/18 02:27:44;;;;;;;6.57;3.78;;;;;;;28.16;47.00;99768.19;4423656;32;33895;-68
2023/07/18 02:30:12;;;;;;;6.57;2.97;;;;;;;28.11;47.16;99774.38;4425439;32;34335;-68
2023/07/18 02:32:44;;;;;;;5.12;2.90;;;;;;;28.09;47.25;99780.09;4436339;32;33848;-67
2023/07/18 02:35:17;;;;;;;5.20;2.78;;;;;;;28.13;47.19;99774.97;4433914;32;34436;-67
2023/07/18 02:37:46;;;;;;;10.07;3.35;;;;;;;28.03;47.12;99774.69;4435740;32;34998;-67
2023/07/18 02:40:15;;;;;;;5.03;2.90;;;;;;;28.03;47.22;99771.94;4434662;32;34213;-67
2023/07/18 02:42:43;;;;;;;4.37;2.53;;;;;;;27.98;47.30;99780.84;4432235;32;33905;-68
2023/07/18 02:45:13;;;;;;;4.37;2.62;;;;;;;27.95;47.36;99778.56;4432024;32;33081;-69
2023/07/18 02:47:41;;;;;;;5.22;2.90;;;;;;;27.99;47.46;99789.94;4432639;32;33807;-68
2023/07/18 02:50:08;;;;;;;5.10;3.10;;;;;;;27.97;47.24;99784.69;4435049;32;34025;-68
2023/07/18 02:52:38;;;;;;;5.00;2.62;;;;;;;27.99;46.99;99785.28;4435526;32;34895;-69
2023/07/18 02:55:06;;;;;;;3.83;2.12;;;;;;;28.02;46.99;99789.47;4424213;32;33580;-68
2023/07/18 02:57:35;;;;;;;6.60;2.80;;;;;;;27.96;47.02;99802.25;4430547;32;34995;-68
2023/07/18 03:00:08;;;;;;;8.00;3.28;;;;;;;28.02;46.92;99803.22;4434789;32;34984;-67
2023/07/18 03:02:37;;;;;;;5.15;2.80;;;;;;;27.93;47.23;99804.59;4446744;32;33563;-67
2023/07/18 03:05:07;;;;;;;4.72;2.60;;;;;;;27.88;46.96;99808.03;4440927;32;33640;-67
2023/07/18 03:07:34;;;;;;;5.75;3.00;;;;;;;27.93;46.82;99807.34;4442458;32;34586;-67
2023/07/18 03:10:03;;;;;;;4.32;2.28;;;;;;;27.98;46.73;99810.28;4435395;32;34035;-67
2023/07/18 03:12:31;;;;;;;12.27;3.17;;;;;;;27.99;46.69;99810.03;4434166;32;33758;-67
2023/07/18 03:14:59;;;;;;;4.70;2.58;;;;;;;27.92;46.92;99811.16;4434230;32;33632;-68
2023/07/18 03:17:26;;;;;;;4.22;2.45;;;;;;;28.03;46.51;99804.94;4429958;32;34680;-68
2023/07/18 03:19:54;;;;;;;4.93;3.03;;;;;;;28.12;46.41;99806.31;4435765;32;33879;-75
2023/07/18 03:22:22;;;;;;;5.68;2.83;;;;;;;28.14;46.62;99803.34;4427418;32;33912;-66
2023/07/18 03:24:49;;;;;;;5.30;2.50;;;;;;;28.19;46.60;99798.84;4433119;32;34576;-66
2023/07/18 03:27:18;;;;;;;3.75;2.47;;;;;;;28.21;46.49;99796.69;4437997;32;35005;-67
2023/07/18 03:29:45;;;;;;;5.20;2.60;;;;;;;28.19;46.59;99789.75;4435595;32;34917;-66
2023/07/18 03:32:13;;;;;;;4.72;2.67;;;;;;;28.20;46.53;99785.91;4434121;32;33573;-69
2023/07/18 03:34:41;;;;;;;6.10;3.15;;;;;;;28.20;46.62;99786.75;4435865;32;34088;-68
2023/07/18 03:37:09;;;;;;;5.70;2.80;;;;;;;28.21;46.60;99795.84;4435671;32;34488;-68
2023/07/18 03:39:37;;;;;;;6.82;3.37;;;;;;;28.19;46.82;99798.00;4433983;32;34138;-68
2023/07/18 03:42:05;;;;;;;7.78;3.12;;;;;;;28.17;46.89;99795.47;4432282;32;33832;-69
2023/07/18 03:44:33;;;;;;;4.87;3.17;;;;;;;28.21;46.87;99799.44;4437404;32;33464;-69
2023/07/18 03:47:00;;;;;;;6.12;3.37;;;;;;;28.23;46.71;99793.72;4432648;32;34924;-69
2023/07/18 03:49:46;;;;;;;4.53;2.40;;;;;;;28.25;46.64;99797.06;4426871;32;34042;-70
2023/07/18 03:52:13;;;;;;;6.55;3.55;;;;;;;28.22;46.69;99806.62;4435838;32;33836;-70
2023/07/18 03:54:42;;;;;;;5.40;3.10;;;;;;;28.25;46.79;99813.56;4433375;32;34299;-68
2023/07/18 03:57:10;;;;;;;5.35;2.85;;;;;;;28.23;46.89;99818.47;4433643;32;33912;-68
2023/07/18 03:59:38;;;;;;;4.22;2.12;;;;;;;28.23;47.07;99810.22;4437256;32;34344;-68
2023/07/18 04:02:06;;;;;;;4.37;2.45;;;;;;;28.22;47.11;99817.66;4430499;32;34671;-68
2023/07/18 04:04:34;;;;;;;8.38;3.20;;;;;;;28.19;47.38;99811.75;4435522;32;33294;-68
2023/07/18 04:07:02;;;;;;;5.82;2.90;;;;;;;28.27;47.14;99808.69;4435923;32;34079;-68
2023/07/18 04:09:30;;;;;;;5.35;3.25;;;;;;;28.28;47.08;99813.97;4432435;32;34000;-68
2023/07/18 04:11:58;;;;;;;3.80;2.33;;;;;;;28.38;46.82;99802.44;4441187;32;34947;-68
2023/07/18 04:14:26;;;;;;;4.40;2.33;;;;;;;28.44;46.97;99808.94;4436481;32;33195;-68
2023/07/18 04:16:54;;;;;;;5.75;3.08;;;;;;;28.19;47.53;99806.25;4431178;32;34806;-68
2023/07/18 04:19:21;;;;;;;5.85;3.08;;;;;;;28.39;47.58;99808.78;4426840;32;35330;-67
2023/07/18 04:21:49;;;;;;;6.55;2.58;;;;;;;28.57;47.35;99808.78;4430293;32;33616;-67
2023/07/18 04:24:17;;;;;;;5.72;2.95;;;;;;;28.71;47.25;99812.22;4434965;32;33315;-67
2023/07/18 04:26:44;;;;;;;5.28;3.03;;;;;;;28.18;47.95;99813.66;4432938;32;33636;-66
2023/07/18 04:29:12;;;;;;;5.85;2.95;;;;;;;28.49;47.43;99820.94;4435121;32;35045;-68
2023/07/18 04:31:40;;;;;;;5.78;3.08;;;;;;;28.67;47.21;99817.37;4432621;32;34604;-68
2023/07/18 04:34:08;;;;;;;6.82;3.25;;;;;;;28.73;47.40;99818.31;4449371;32;33386;-67
2023/07/18 04:36:35;;;;;;;4.50;2.90;;;;;;;28.83;46.80;99815.88;4436168;32;34036;-67
2023/07/18 04:39:03;;;;;;;4.55;3.28;;;;;;;28.58;46.64;99820.66;4436293;32;32047;-68
2023/07/18 04:41:31;;;;;;;9.52;3.47;;;;;;;28.51;46.85;99821.56;4423399;32;34659;-67
2023/07/18 04:44:16;;;;;;;7.30;2.83;;;;;;;28.20;47.70;99813.44;4430388;32;33354;-68
2023/07/18 04:46:43;;;;;;;6.00;3.17;;;;;;;28.33;47.08;99818.78;4435293;32;34669;-67
2023/07/18 04:49:11;;;;;;;5.40;3.08;;;;;;;28.46;46.25;99823.34;4431340;32;35247;-68
2023/07/18 04:51:39;;;;;;;4.53;3.12;;;;;;;28.38;46.92;99829.09;4430745;32;34470;-68
2023/07/18 04:54:06;;;;;;;7.30;3.12;;;;;;;28.25;47.15;99833.69;4435380;32;33309;-66
2023/07/18 04:56:34;;;;;;;5.53;2.65;;;;;;;28.36;46.83;99843.09;4437585;32;35039;-67
2023/07/18 04:59:02;;;;;;;4.53;2.55;;;;;;;28.48;46.73;99838.56;4446316;32;34042;-66
2023/07/18 05:01:30;;;;;;;5.97;3.30;;;;;;;28.61;46.21;99845.81;4429759;32;35744;-66
2023/07/18 05:03:58;;;;;;;6.12;2.90;;;;;;;28.53;46.39;99844.19;4434403;32;33502;-67
2023/07/18 05:06:25;;;;;;;5.78;3.15;;;;;;;28.56;45.83;99849.25;4432305;32;34686;-68
2023/07/18 05:08:53;;;;;;;9.32;4.12;;;;;;;28.54;46.07;99856.91;4433693;32;33670;-68
2023/07/18 05:11:21;;;;;;;6.50;3.72;;;;;;;28.64;45.66;99850.03;4434363;32;34031;-67
2023/07/18 05:13:49;;;;;;;6.05;3.12;;;;;;;28.65;45.68;99854.47;4435907;32;33518;-68
2023/07/18 05:16:17;;;;;;;7.68;3.50;;;;;;;28.25;45.97;99861.22;4440065;32;32764;-68
2023/07/18 05:18:45;;;;;;;8.57;2.85;;;;;;;28.47;45.72;99863.53;4436642;32;35031;-68
2023/07/18 05:21:13;;;;;;;6.12;3.10;;;;;;;28.68;45.33;99867.75;4434224;32;33753;-68
2023/07/18 05:23:41;;;;;;;6.80;2.90;;;;;;;28.67;45.35;99872.44;4433865;32;34223;-68
2023/07/18 05:26:10;;;;;;;5.25;3.17;;;;;;;29.01;44.88;99876.47;4436489;32;33652;-74
2023/07/18 05:28:37;;;;;;;6.82;2.75;;;;;;;28.66;45.08;99870.72;4436862;32;33924;-68
2023/07/18 05:31:09;;;;;;;6.70;3.47;;;;;;;29.10;44.67;99862.38;4439372;32;34986;-68
2023/07/18 05:33:37;;;;;;;3.80;2.33;;;;;;;28.70;45.62;99860.97;4431943;32;34228;-68
2023/07/18 05:36:04;;;;;;;7.00;3.37;;;;;;;28.79;45.24;99870.56;4433210;32;33941;-68
2023/07/18 05:38:32;;;;;;;5.00;2.58;;;;;;;28.51;45.49;99868.38;4436400;32;33785;-68
2023/07/18 05:41:00;;;;;;;5.57;2.75;;;;;;;29.27;44.19;99874.44;4441525;32;33310;-68
2023/07/18 05:43:27;;;;;;;5.60;3.35;;;;;;;29.33;43.71;99876.25;4437504;32;33171;-68
2023/07/18 05:45:55;;;;;;;7.20;3.10;;;;;;;29.17;44.44;99874.97;4436518;32;32226;-68
2023/07/18 05:48:23;;;;;;;7.62;2.92;;;;;;;29.42;44.30;99865.75;4433629;32;34122;-68
2023/07/18 05:50:50;;;;;;;5.18;2.90;;;;;;;29.70;44.53;99865.97;4435423;32;34653;-68
2023/07/18 05:53:18;;;;;;;7.00;3.03;;;;;;;29.59;43.77;99868.66;4434169;32;34181;-68
2023/07/18 05:55:46;;;;;;;6.30;3.58;;;;;;;29.19;44.64;99866.50;4433444;32;33733;-68
2023/07/18 05:58:13;;;;;;;11.07;3.40;;;;;;;29.47;44.39;99877.75;4441928;32;33907;-68
2023/07/18 06:00:41;;;;;;;6.90;3.12;;;;;;;29.57;44.62;99882.69;4432699;32;33963;-68
2023/07/18 06:03:09;;;;;;;8.32;3.60;;;;;;;29.81;44.23;99880.00;4436688;32;33326;-69
2023/07/18 06:05:37;;;;;;;6.50;3.50;;;;;;;29.46;44.53;99883.47;4435616;32;33648;-69
2023/07/18 06:08:05;;;;;;;6.07;3.33;;;;;;;29.34;44.82;99877.94;4442271;32;35275;-69
2023/07/18 06:10:33;;;;;;;5.75;3.12;;;;;;;29.06;44.71;99894.25;4438365;32;33762;-69
2023/07/18 06:13:00;;;;;;;7.35;3.72;;;;;;;29.06;44.81;99881.31;4435248;32;34389;-69
2023/07/18 06:15:28;;;;;;;8.63;4.12;;;;;;;29.49;44.39;99888.53;4437472;32;33814;-69
2023/07/18 06:17:56;;;;;;;11.93;4.03;;;;;;;29.06;45.36;99877.72;4430924;32;35186;-69
2023/07/18 06:20:23;;;;;;;4.55;3.10;;;;;;;29.06;44.95;99894.25;4432718;32;34709;-69
2023/07/18 06:22:52;;;;;;;6.30;3.55;;;;;;;29.70;44.06;99888.03;4424926;32;34239;-69
2023/07/18 06:25:20;;;;;;;4.35;2.75;;;;;;;29.59;44.13;99896.22;4431605;32;34399;-69
2023/07/18 06:27:48;;;;;;;8.85;4.28;;;;;;;29.71;43.93;99886.94;4430749;32;33711;-69
2023/07/18 06:30:16;;;;;;;5.70;3.10;;;;;;;29.70;43.83;99892.72;4429070;32;34615;-69
2023/07/18 06:32:44;;;;;;;6.03;3.37;;;;;;;29.70;44.04;99888.03;4428441;32;33363;-69
2023/07/18 06:35:12;;;;;;;8.18;3.58;;;;;;;29.83;43.92;99886.13;4447606;32;32629;-67
2023/07/18 06:37:43;;;;;;;4.95;3.00;;;;;;;29.76;42.85;99896.41;4427504;32;33857;-68
2023/07/18 06:40:12;;;;;;;7.28;3.37;;;;;;;29.02;43.86;99891.94;4434069;32;34923;-68
2023/07/18 06:42:40;;;;;;;6.78;3.35;;;;;;;29.16;43.79;99897.28;4435804;32;34774;-68
2023/07/18 06:45:08;;;;;;;8.60;3.50;;;;;;;29.04;43.94;99899.97;4435859;32;33689;-69
2023/07/18 06:47:36;;;;;;;8.77;3.60;;;;;;;29.19;44.14;99907.84;4431938;32;32802;-68
2023/07/18 06:50:04;;;;;;;6.07;3.47;;;;;;;29.01;45.24;99904.03;4430153;32;33675;-69
2023/07/18 06:52:31;;;;;;;9.43;3.62;;;;;;;29.63;42.05;99917.63;4429165;32;34436;-68
2023/07/18 06:55:04;;;;;;;8.05;3.25;;;;;;;29.11;43.40;99910.91;4429436;32;33829;-68
2023/07/18 06:57:32;;;;;;;6.97;3.15;;;;;;;28.92;43.45;99919.16;4433887;32;34205;-69
2023/07/18 07:00:00;;;;;;;9.27;3.33;;;;;;;28.80;43.27;99926.53;4433679;32;33715;-69
2023/07/18 07:02:29;;;;;;;7.35;3.45;;;;;;;28.85;43.54;99920.31;4432112;32;33993;-69
2023/07/18 07:04:56;;;;;;;6.72;3.30;;;;;;;29.22;42.57;99924.75;4435295;32;34957;-68
2023/07/18 07:07:25;;;;;;;7.22;3.40;;;;;;;29.05;43.91;99925.59;4432834;32;33814;-69
2023/07/18 07:09:53;;;;;;;5.90;3.35;;;;;;;29.44;44.18;99927.84;4431350;32;33984;-69
2023/07/18 07:12:20;;;;;;;5.70;3.03;;;;;;;29.53;42.73;99928.34;4430993;32;32982;-68
2023/07/18 07:15:03;;;;;;;8.52;3.72;;;;;;;29.05;44.66;99931.13;4435158;32;35163;-69
2023/07/18 07:17:31;;;;;;;10.95;3.35;;;;;;;29.47;43.25;99927.38;4433427;32;33689;-69
2023/07/18 07:19:59;;;;;;;8.38;2.87;;;;;;;30.09;42.97;99937.28;4433274;32;33720;-70
2023/07/18 07:22:27;;;;;;;8.82;2.95;;;;;;;29.93;42.78;99931.38;4433451;32;33730;-70
2023/07/18 07:24:54;;;;;;;10.63;3.65;;;;;;;29.37;43.10;99931.75;4430325;32;33364;-71
2023/07/18 07:27:22;;;;;;;9.15;3.92;;;;;;;29.66;42.30;99932.84;4433235;32;33823;-71
2023/07/18 07:29:51;;;;;;;7.47;3.90;;;;;;;29.54;42.09;99924.53;4433841;32;33923;-70
2023/07/18 07:32:19;;;;;;;8.48;3.83;;;;;;;30.26;41.10;99929.16;4430971;32;33987;-71
2023/07/18 07:34:47;;;;;;;8.20;4.45;;;;;;;29.67;41.45;99927.13;4432675;32;33811;-71
2023/07/18 07:37:15;;;;;;;9.95;4.32;;;;;;;29.92;40.54;99939.87;4432482;32;34157;-71
2023/07/18 07:39:44;;;;;;;6.37;3.42;;;;;;;29.98;40.26;99935.31;4432297;32;33725;-71
2023/07/18 07:42:12;;;;;;;5.62;3.33;;;;;;;30.40;40.12;99934.22;4432677;32;33349;-71
2023/07/18 07:44:40;;;;;;;6.43;3.15;;;;;;;30.73;39.03;99938.28;4417745;32;33438;-71
2023/07/18 07:47:08;;;;;;;5.47;3.05;;;;;;;30.14;40.19;99942.91;4409686;32;33838;-70
2023/07/18 07:49:35;;;;;;;5.90;3.35;;;;;;;30.16;39.94;99940.75;4423259;32;34630;-72
2023/07/18 07:52:04;;;;;;;6.75;3.45;;;;;;;30.56;39.78;99946.47;4415074;32;33213;-73
2023/07/18 07:54:31;;;;;;;8.75;3.30;;;;;;;30.54;39.32;99937.56;4422091;32;33530;-72
2023/07/18 07:56:59;;;;;;;8.02;3.50;;;;;;;30.37;37.57;99942.16;4415858;32;34688;-73
2023/07/18 07:59:26;;;;;;;9.15;2.50;;;;;;;30.41;36.17;99948.84;4415799;32;33600;-72
2023/07/18 08:01:54;;;;;;;6.62;3.55;;;;;;;30.83;35.89;99952.34;4418570;32;33347;-72
2023/07/18 08:04:22;;;;;;;8.27;3.75;;;;;;;30.28;36.38;99947.16;4416665;32;34214;-70
2023/07/18 08:06:53;;;;;;;8.13;3.22;;;;;;;30.85;35.69;99944.66;4421035;32;33833;-71
2023/07/18 08:09:21;;;;;;;8.10;2.47;;;;;;;30.35;34.55;99945.13;4410042;32;33614;-70
2023/07/18 08:11:49;;;;;;;5.85;3.08;;;;;;;30.72;34.37;99952.31;4415664;32;32833;-71
2023/07/18 08:14:17;;;;;;;6.70;3.37;;;;;;;31.07;32.27;99949.50;4419786;32;33626;-72
2023/07/18 08:16:44;;;;;;;6.97;3.58;;;;;;;30.65;32.92;99957.97;4427468;32;33712;-73
2023/07/18 08:19:12;;;;;;;6.90;3.28;;;;;;;30.02;33.48;99953.13;4436920;32;34906;-73
2023/07/18 08:21:40;;;;;;;9.35;3.58;;;;;;;29.75;33.57;99948.00;4430877;32;34235;-70
2023/07/18 08:24:08;;;;;;;6.15;3.28;;;;;;;29.76;34.47;99952.44;4435021;32;33857;-70
2023/07/18 08:26:35;;;;;;;9.48;4.00;;;;;;;29.58;35.52;99934.00;4437779;32;33793;-70
2023/07/18 08:29:03;;;;;;;5.85;3.45;;;;;;;29.33;34.71;99947.09;4431406;32;33494;-70
2023/07/18 08:31:30;;;;;;;6.18;2.85;;;;;;;30.23;34.37;99946.19;4436239;32;33256;-70
2023/07/18 08:33:58;;;;;;;6.62;2.95;;;;;;;30.50;34.21;99941.91;4440277;32;34957;-73
2023/07/18 08:36:26;;;;;;;6.32;3.17;;;;;;;30.47;34.96;99939.63;4428318;32;33699;-69
2023/07/18 08:38:54;;;;;;;7.65;2.97;;;;;;;30.24;35.78;99934.94;4433883;32;35303;-69
2023/07/18 08:41:21;;;;;;;7.37;3.90;;;;;;;30.47;34.38;99936.03;4432199;32;33135;-69
2023/07/18 08:43:50;;;;;;;6.90;2.90;;;;;;;30.14;35.27;99929.09;4435243;32;33729;-71
2023/07/18 08:46:18;;;;;;;6.70;3.55;;;;;;;30.21;35.18;99937.31;4435635;32;33622;-71
2023/07/18 08:48:48;;;;;;;7.93;3.90;;;;;;;30.92;33.07;99943.69;4439108;32;33622;-71
2023/07/18 08:51:16;;;;;;;9.27;4.03;;;;;;;30.70;33.90;99941.50;4394688;32;34342;-71
2023/07/18 08:53:44;;;;;;;9.00;4.12;;;;;;;30.58;34.30;99949.81;4396488;32;33678;-71
2023/07/18 08:56:12;;;;;;;5.35;3.20;;;;;;;30.67;34.59;99942.00;4400521;32;33974;-72
2023/07/18 08:58:39;;;;;;;4.97;2.87;;;;;;;31.16;33.77;99937.00;4399137;32;34119;-70
2023/07/18 09:01:08;;;;;;;7.57;4.07;;;;;;;30.80;33.36;99940.94;4395766;32;32932;-72
2023/07/18 09:03:36;;;;;;;9.48;3.35;;;;;;;30.80;32.71;99939.00;4396467;32;33261;-72
2023/07/18 09:06:04;;;;;;;8.88;3.97;;;;;;;31.15;32.37;99940.84;4401357;32;33705;-73
2023/07/18 09:08:41;;;;;;;5.57;3.75;;;;;;;31.27;32.13;99944.44;4386518;32;34326;-71
2023/07/18 09:11:12;;;;;;;11.48;3.15;;;;;;;31.65;30.50;99931.87;4396920;32;34948;-71
2023/07/18 09:13:41;;;;;;;5.10;2.90;;;;;;;31.96;29.74;99935.22;4397623;32;34545;-71
2023/07/18 09:16:22;;;;;;;7.07;4.00;;;;;;;31.52;30.62;99938.56;4414688;32;33740;-71
2023/07/18 09:18:52;;;;;;;8.73;3.90;;;;;;;30.97;30.55;99933.56;4411686;32;34124;-72
2023/07/18 09:21:21;;;;;;;7.50;3.45;;;;;;;31.17;30.59;99927.59;4412061;32;33038;-72
2023/07/18 09:23:50;;;;;;;8.90;4.07;;;;;;;31.46;29.77;99920.22;4429282;32;33982;-72
2023/07/18 09:26:20;;;;;;;4.93;2.62;;;;;;;31.73;27.70;99925.94;4432620;32;33764;-72
2023/07/18 09:28:48;;;;;;;7.68;3.00;;;;;;;31.54;27.36;99924.50;4433673;32;32047;-72
2023/07/18 09:31:24;;;;;;;7.47;3.10;;;;;;;30.94;28.54;99922.16;4430590;32;33401;-69
2023/07/18 09:33:54;;;;;;;8.43;3.58;;;;;;;31.52;28.59;99921.12;4432959;32;33898;-69
2023/07/18 09:36:24;;;;;;;6.05;2.87;;;;;;;31.43;28.17;99920.72;4425333;32;33966;-70
2023/07/18 09:38:53;;;;;;;7.00;3.60;;;;;;;31.98;28.57;99914.53;4426299;32;34495;-70
2023/07/18 09:41:21;;;;;;;8.23;4.10;;;;;;;32.03;28.57;99911.00;4437115;32;33200;-71
2023/07/18 09:43:52;;;;;;;8.10;4.18;;;;;;;31.88;28.34;99919.00;4433049;32;33735;-72
2023/07/18 09:46:40;;;;;;;6.40;3.80;;;;;;;32.18;28.25;99908.47;4398193;32;33916;-73
2023/07/18 09:49:09;;;;;;;6.93;3.85;;;;;;;32.55;27.52;99907.94;4402702;32;33275;-72
2023/07/18 09:52:01;;;;;;;6.90;3.50;;;;;;;31.85;27.81;99908.44;4397971;32;33193;-71
2023/07/18 09:54:30;;;;;;;7.72;4.20;;;;;;;32.70;27.00;99894.28;4389475;32;33445;-70
2023/07/18 09:57:09;;;;;;;6.05;3.67;;;;;;;32.45;27.62;99897.53;4400501;32;35803;-71
2023/07/18 09:59:39;;;;;;;6.50;4.32;;;;;;;32.80;26.97;99903.84;4388044;32;33781;-72
2023/07/18 10:02:09;;;;;;;6.50;3.53;;;;;;;32.61;27.36;99890.28;4389893;32;34755;-73
2023/07/18 10:04:38;;;;;;;7.93;3.80;;;;;;;32.73;27.37;99886.56;4394867;32;33851;-73
2023/07/18 10:07:08;;;;;;;6.95;3.60;;;;;;;32.80;28.29;99876.12;4397482;32;33433;-72
2023/07/18 10:09:37;;;;;;;7.18;3.47;;;;;;;32.97;27.20;99876.06;4396458;32;33486;-71
2023/07/18 10:12:05;;;;;;;7.60;3.70;;;;;;;32.60;27.51;99863.69;4400665;32;34144;-71
2023/07/18 10:14:41;;;;;;;7.22;3.70;;;;;;;32.52;28.00;99869.69;4397845;32;33456;-71
2023/07/18 10:17:10;;;;;;;6.10;3.47;;;;;;;32.43;27.57;99865.69;4406799;32;34069;-71
2023/07/18 10:19:50;;;;;;;7.53;3.90;;;;;;;33.08;27.56;99861.25;4413958;32;33880;-72
2023/07/18 10:22:31;;;;;;;8.02;3.20;;;;;;;33.13;26.95;99856.59;4433066;32;32919;-72
2023/07/18 10:25:00;;;;;;;5.10;2.87;;;;;;;33.48;27.01;99860.00;4428260;32;33626;-71
2023/07/18 10:27:43;;;;;;;7.70;3.28;;;;;;;33.34;26.35;99848.50;4437037;32;34187;-72
2023/07/18 10:30:15;;;;;;;4.78;2.78;;;;;;;33.28;25.85;99860.62;4437760;32;34700;-72
2023/07/18 10:32:57;;;;;;;6.85;3.65;;;;;;;32.82;25.80;99858.16;4432918;32;33124;-72
2023/07/18 10:35:26;;;;;;;6.20;2.55;;;;;;;33.94;25.33;99852.94;4431661;32;33560;-72
2023/07/18 10:37:56;;;;;;;8.80;3.30;;;;;;;33.27;25.39;99858.97;4433545;32;34122;-71
2023/07/18 10:40:39;;;;;;;6.05;3.35;;;;;;;33.95;24.56;99854.59;4438133;32;33628;-71
2023/07/18 10:43:09;;;;;;;7.85;3.55;;;;;;;33.70;25.75;99846.91;4430627;32;33970;-72
2023/07/18 10:45:38;;;;;;;6.15;3.05;;;;;;;34.18;24.18;99831.19;4428843;32;34539;-71
2023/07/18 10:48:13;;;;;;;7.25;3.40;;;;;;;34.40;23.39;99836.59;4431056;32;33904;-71
2023/07/18 10:50:42;;;;;;;8.70;3.15;;;;;;;34.16;25.37;99838.97;4434149;32;33754;-72
2023/07/18 10:53:18;;;;;;;6.72;3.45;;;;;;;33.74;25.04;99833.34;4434126;32;34174;-71
2023/07/18 10:55:46;;;;;;;7.78;3.25;;;;;;;33.90;24.61;99835.13;4433404;32;35439;-70
2023/07/18 10:58:19;;;;;;;5.45;3.08;;;;;;;34.16;24.29;99840.87;4432193;32;33695;-71
2023/07/18 11:00:49;;;;;;;6.50;3.60;;;;;;;34.77;23.02;99833.75;4430049;32;32365;-71
2023/07/18 11:03:22;;;;;;;7.43;3.53;;;;;;;34.06;24.14;99831.41;4418805;32;34104;-70
2023/07/18 11:05:50;;;;;;;15.25;4.55;;;;;;;34.11;24.24;99833.37;4413024;32;33923;-70
2023/07/18 11:08:29;;;;;;;8.15;3.87;;;;;;;34.23;23.96;99833.19;4431441;32;34194;-71
2023/07/18 11:11:02;;;;;;;5.35;3.15;;;;;;;34.41;24.13;99824.38;4432790;32;35495;-71
2023/07/18 11:13:31;;;;;;;6.77;3.90;;;;;;;34.59;23.24;99817.53;4430686;32;33060;-71
2023/07/18 11:16:07;;;;;;;7.50;3.37;;;;;;;34.25;22.72;99814.28;4426490;32;35686;-72
2023/07/18 11:18:36;;;;;;;6.07;3.60;;;;;;;33.77;23.65;99811.47;4433810;32;34003;-70
2023/07/18 11:21:05;;;;;;;7.57;2.80;;;;;;;34.67;23.48;99811.47;4433597;32;34682;-71
2023/07/18 11:23:34;;;;;;;7.68;2.97;;;;;;;34.26;23.70;99805.69;4415212;32;33236;-70
2023/07/18 11:26:29;;;;;;;7.78;3.10;;;;;;;34.07;24.05;99813.62;4423687;32;33739;-70
2023/07/18 11:28:59;;;;;;;6.60;3.15;;;;;;;34.06;24.17;99803.63;4382154;32;33869;-71
2023/07/18 11:31:29;;;;;;;9.63;3.42;;;;;;;34.20;23.78;99800.38;4382978;32;33571;-71
2023/07/18 11:34:08;;;;;;;6.55;3.37;;;;;;;34.32;23.73;99803.78;4387435;32;33245;-71
2023/07/18 11:36:39;;;;;;;6.50;3.28;;;;;;;34.11;23.57;99797.28;4383630;32;33608;-70
2023/07/18 11:39:21;;;;;;;7.43;3.53;;;;;;;34.29;23.71;99791.25;4388690;32;33912;-70
2023/07/18 11:41:51;;;;;;;5.90;3.22;;;;;;;34.30;23.87;99794.87;4386015;32;33917;-70
2023/07/18 11:44:24;;;;;;;7.55;3.15;;;;;;;34.64;23.66;99792.56;4379203;32;34483;-70